Time;durP1;ratioP1;P1;durP2;ratioP2;P2;SDS_P1;SDS_P2;PMS_P1;PMS_P2;Temp;Humidity;BMP_temperature;BMP_pressure;BME280_temperature;BME280_humidity;BME280_pressure;Samples;Min_cycle;Max_cycle;Signal;HPM_P1;HPM_P2
2023/09/06 04:01:04;;;;;;;16.10;6.60;;;;;;;11.60;67.02;99968.46;107431;1263;94198;-89
2023/09/06 04:03:38;;;;;;;16.10;6.40;;;;;;;11.60;67.04;99968.33;105831;1262;107761;-89
2023/09/06 04:06:37;;;;;;;15.20;6.10;;;;;;;11.62;67.14;99967.14;105604;1259;95289;-89
2023/09/06 04:09:37;;;;;;;15.90;6.20;;;;;;;11.62;67.26;99968.69;105693;1262;95299;-90
2023/09/06 04:12:09;;;;;;;13.10;6.50;;;;;;;11.60;67.14;99964.05;105551;1265;108474;-90
2023/09/06 04:14:42;;;;;;;16.30;6.40;;;;;;;11.61;67.21;99963.92;105662;1267;95157;-89
2023/09/06 04:18:06;;;;;;;16.80;6.40;;;;;;;11.63;67.28;99950.91;105928;1264;109651;-91
2023/09/06 04:21:00;;;;;;;13.60;5.80;;;;;;;11.66;67.41;99949.45;105600;1272;94006;-91
2023/09/06 04:23:47;;;;;;;;;;;;;;;;;;;;;
2023/09/06 04:34:40;;;;;;;15.70;5.80;;;;;;;11.64;67.38;99966.65;105908;1263;109000;-90
2023/09/06 04:53:23;;;;;;;20.50;6.90;;;;;;;11.74;67.61;99974.70;105477;1273;109044;-92
2023/09/06 04:55:55;;;;;;;14.30;6.10;;;;;;;11.78;67.65;99965.43;105697;1262;95165;-90
2023/09/06 04:58:31;;;;;;;15.80;6.40;;;;;;;11.83;67.72;99967.24;106214;1265;95238;-91
2023/09/06 05:02:45;;;;;;;16.50;6.40;;;;;;;11.91;67.72;99969.22;106163;1261;107812;-89
2023/09/06 05:09:37;;;;;;;13.40;5.90;;;;;;;12.09;67.88;99973.60;105350;1260;107552;-90
2023/09/06 05:16:36;;;;;;;14.80;5.70;;;;;;;12.23;68.19;99986.23;106024;1259;95347;-91
2023/09/06 05:19:21;;;;;;;;;;;;;;;;;;;;;
2023/09/06 05:26:03;;;;;;;14.90;6.20;;;;;;;12.30;68.16;99993.45;105904;1259;107626;-89
2023/09/06 05:32:25;;;;;;;14.20;5.50;;;;;;;12.40;68.29;99987.46;106173;1262;95141;-90
2023/09/06 05:35:25;;;;;;;16.00;6.10;;;;;;;12.52;68.44;99987.17;105867;1266;107128;-90
2023/09/06 05:37:57;;;;;;;15.00;5.60;;;;;;;12.62;68.46;99989.74;105461;1267;95312;-90
2023/09/06 05:41:34;;;;;;;15.40;5.90;;;;;;;12.73;68.58;99997.02;106520;1265;109121;-90
2023/09/06 05:44:12;;;;;;;13.20;5.70;;;;;;;12.81;68.58;99995.80;106749;1260;98055;-87
2023/09/06 05:54:57;;;;;;;15.30;5.80;;;;;;;13.02;68.80;99995.44;105625;1265;96588;-89
2023/09/06 05:57:44;;;;;;;;;;;;;;;;;;;;;
2023/09/06 06:01:19;;;;;;;;;;;;;;;;;;;;;
2023/09/06 06:05:02;;;;;;;12.90;6.00;;;;;;;13.29;69.05;99998.58;105336;1262;96604;-90
2023/09/06 06:11:53;;;;;;;15.20;6.30;;;;;;;13.51;69.20;99999.42;105343;1265;97545;-91
2023/09/06 06:18:54;;;;;;;;;;;;;;;;;;;;;
2023/09/06 06:29:38;;;;;;;15.20;6.90;;;;;;;14.14;69.77;99994.95;105352;1261;96619;-89
2023/09/06 06:32:15;;;;;;;14.40;6.30;;;;;;;14.27;69.80;100001.17;105560;1265;107751;-89
2023/09/06 06:39:23;;;;;;;16.30;6.40;;;;;;;14.53;70.00;100005.52;105549;1260;96613;-91
2023/09/06 06:46:51;;;;;;;13.40;5.70;;;;;;;14.79;70.20;100004.73;105246;1271;96541;-89
2023/09/06 06:56:47;;;;;;;15.80;5.80;;;;;;;15.15;70.29;100006.39;105547;1262;96617;-90
2023/09/06 06:59:59;;;;;;;16.50;6.30;;;;;;;15.29;70.41;100004.27;105607;1266;108267;-92
2023/09/06 07:10:18;;;;;;;;;;;;;;;;;;;;;
2023/09/06 07:14:03;;;;;;;;;;;;;;;;;;;;;
2023/09/06 07:24:15;;;;;;;;;;;;;;;16.18;70.46;100006.12;105314;1263;107763;-90
2023/09/06 07:26:52;;;;;;;;;;;;;;;16.25;70.65;100008.61;105363;1266;96692;-90
2023/09/06 07:30:21;;;;;;;;;;;;;;;16.39;70.61;100008.71;105524;1262;96710;-89
2023/09/06 07:32:57;;;;;;;;;;;;;;;16.46;70.41;100010.12;105498;1274;109915;-90
2023/09/06 07:36:13;;;;;;;;;;;;;;;16.53;70.44;100012.77;105509;1262;96596;-89
2023/09/06 07:38:42;;;;;;;;;;;;;;;16.60;70.41;100006.78;105651;1268;107765;-90
2023/09/06 07:41:17;;;;;;;;;;;;;;;16.69;70.21;100008.97;105506;1260;96620;-91
2023/09/06 07:43:48;;;;;;;;;;;;;;;16.77;70.27;100004.84;105491;1263;96660;-91
2023/09/06 07:47:11;;;;;;;;;;;;;;;;;;;;;
2023/09/06 07:50:20;;;;;;;;;;;;;;;17.04;70.24;99999.03;105701;1267;96521;-91
2023/09/06 07:52:51;;;;;;;;;;;;;;;17.09;70.19;99997.20;106548;1265;107789;-91
2023/09/06 07:55:22;;;;;;;;;;;;;;;17.18;70.09;99992.85;106344;1262;96695;-91
2023/09/06 07:57:56;;;;;;;;;;;;;;;17.29;70.12;99993.19;105874;1263;96624;-88
2023/09/06 08:00:24;;;;;;;;;;;;;;;17.39;70.21;99987.98;105739;1269;109956;-91
2023/09/06 08:02:57;;;;;;;;;;;;;;;17.48;70.09;99989.73;105682;1265;96593;-90
2023/09/06 08:05:27;;;;;;;;;;;;;;;17.52;69.84;99987.39;105675;1265;107699;-91
2023/09/06 08:07:58;;;;;;;;;;;;;;;17.59;70.03;99988.74;105681;1259;97486;-89
2023/09/06 08:10:27;;;;;;;;;;;;;;;17.66;69.94;99988.05;105776;1262;96605;-88
2023/09/06 08:12:55;;;;;;;;;;;;;;;17.68;69.93;99992.17;105490;1267;108275;-88
2023/09/06 08:15:24;;;;;;;;;;;;;;;17.72;69.78;99995.01;105748;1262;96875;-89
2023/09/06 08:17:53;;;;;;;;;;;;;;;17.79;69.87;99994.76;105611;1268;107577;-89
2023/09/06 08:20:21;;;;;;;;;;;;;;;17.85;69.79;99997.58;105462;1268;96595;-88
2023/09/06 08:22:55;;;;;;;;;;;;;;;17.92;69.80;99996.64;105486;1268;96578;-90
2023/09/06 08:25:23;;;;;;;;;;;;;;;17.97;69.64;99996.91;105450;1267;109594;-91
2023/09/06 08:27:52;;;;;;;;;;;;;;;18.02;69.63;99994.91;105450;1261;96714;-89
2023/09/06 08:30:23;;;;;;;;;;;;;;;18.08;69.77;99995.43;105393;1267;107238;-89
2023/09/06 08:32:51;;;;;;;;;;;;;;;18.13;69.80;99996.63;105411;1267;97329;-88
2023/09/06 08:35:23;;;;;;;;;;;;;;;18.23;69.71;100000.81;105465;1262;96614;-89
2023/09/06 08:37:54;;;;;;;;;;;;;;;18.29;69.55;99999.91;105426;1262;109968;-89
2023/09/06 08:40:23;;;;;;;;;;;;;;;18.33;69.68;100001.52;105396;1262;96508;-89
2023/09/06 08:42:58;;;;;;;;;;;;;;;18.38;69.55;99994.89;105392;1265;107630;-91
2023/09/06 08:45:30;;;;;;;;;;;;;;;18.43;69.56;99993.00;105377;1263;97182;-90
2023/09/06 08:48:01;;;;;;;;;;;;;;;18.49;69.48;99994.54;105410;1264;96598;-89
2023/09/06 08:50:35;;;;;;;;;;;;;;;18.55;69.40;99992.89;105415;1268;109904;-89
2023/09/06 08:53:04;;;;;;;;;;;;;;;18.61;69.37;99995.53;105505;1263;96639;-90
2023/09/06 08:55:32;;;;;;;;;;;;;;;18.65;68.97;99994.34;105454;1262;107403;-90
2023/09/06 08:58:03;;;;;;;;;;;;;;;18.73;69.12;99990.28;105419;1268;96572;-89
2023/09/06 09:00:31;;;;;;;;;;;;;;;18.82;69.09;99992.02;105425;1268;96779;-90
2023/09/06 09:03:03;;;;;;;;;;;;;;;18.86;69.06;99990.19;105308;1267;109818;-89
2023/09/06 09:05:38;;;;;;;;;;;;;;;18.89;69.15;99990.98;105515;1262;96578;-90
2023/09/06 09:08:08;;;;;;;;;;;;;;;18.93;69.13;99992.25;105270;1262;107784;-90
2023/09/06 09:10:42;;;;;;;;;;;;;;;18.99;68.85;99992.31;105541;1267;96685;-90
2023/09/06 09:13:12;;;;;;;;;;;;;;;19.03;68.74;99990.77;105456;1262;96613;-90
2023/09/06 09:15:40;;;;;;;;;;;;;;;19.07;68.61;99986.52;105606;1263;110049;-89
2023/09/06 09:18:12;;;;;;;;;;;;;;;19.14;68.69;99987.34;105517;1268;98051;-90
2023/09/06 09:20:41;;;;;;;;;;;;;;;19.21;68.63;99988.41;105972;1264;107555;-91
2023/09/06 09:23:16;;;;;;;;;;;;;;;19.26;68.51;99984.74;106178;1262;96614;-91
2023/09/06 09:25:49;;;;;;;;;;;;;;;19.30;68.50;99986.15;106132;1260;97926;-92
2023/09/06 09:28:18;;;;;;;;;;;;;;;19.36;68.64;99980.71;105664;1261;110118;-91
2023/09/06 09:30:47;;;;;;;;;;;;;;;19.45;68.58;99980.56;105731;1265;96530;-90
2023/09/06 09:33:16;;;;;;;;;;;;;;;19.53;68.54;99982.93;105442;1265;107228;-90
2023/09/06 09:35:48;;;;;;;;;;;;;;;19.58;68.32;99985.46;105294;1267;96803;-88
2023/09/06 09:38:20;;;;;;;;;;;;;;;19.66;68.39;99988.34;105376;1267;97635;-90
2023/09/06 09:41:10;;;;;;;;;;;;;;;19.72;68.32;99985.59;105415;1263;110005;-90
2023/09/06 09:43:42;;;;;;;;;;;;;;;19.74;68.06;99984.37;105588;1267;96611;-91
2023/09/06 09:46:10;;;;;;;;;;;;;;;19.75;68.04;99982.22;105567;1262;107611;-89
2023/09/06 09:48:41;;;;;;;;;;;;;;;19.80;67.90;99983.73;105369;1262;97040;-91
2023/09/06 09:51:16;;;;;;;;;;;;;;;19.82;67.92;99983.35;105535;1261;97493;-91
2023/09/06 09:53:45;;;;;;;;;;;;;;;19.85;67.97;99978.59;105404;1268;109652;-89
2023/09/06 09:56:14;;;;;;;;;;;;;;;19.90;68.06;99981.01;105615;1266;97978;-90
2023/09/06 09:58:43;;;;;;;;;;;;;;;19.96;67.72;99983.17;105449;1265;107691;-90
2023/09/06 10:01:14;;;;;;;;;;;;;;;19.98;67.28;99977.73;105308;1265;96611;-90
2023/09/06 10:03:45;;;;;;;;;;;;;;;20.04;67.34;99977.80;105538;1262;96531;-89
2023/09/06 10:06:13;;;;;;;;;;;;;;;20.07;67.37;99976.66;106115;1262;108496;-89
2023/09/06 10:08:44;;;;;;;;;;;;;;;20.11;67.48;99977.02;106264;1262;96597;-90
2023/09/06 10:11:18;;;;;;;;;;;;;;;20.17;67.35;99972.51;105897;1265;107846;-92
2023/09/06 10:13:50;;;;;;;;;;;;;;;20.18;66.90;99978.34;105630;1269;96801;-90
2023/09/06 10:16:25;;;;;;;;;;;;;;;20.20;66.69;99976.79;105399;1268;97531;-89
2023/09/06 10:18:53;;;;;;;;;;;;;;;20.22;66.56;99981.84;105414;1269;109398;-90
2023/09/06 10:21:22;;;;;;;;;;;;;;;20.22;66.38;99977.87;105514;1266;96612;-90
2023/09/06 10:23:50;;;;;;;;;;;;;;;20.29;66.34;99977.06;105475;1267;107745;-90
2023/09/06 10:26:39;;;;;;;;;;;;;;;20.34;66.62;99971.29;105292;1262;97116;-90
2023/09/06 10:29:10;;;;;;;;;;;;;;;20.42;66.57;99971.96;105484;1262;96634;-92
2023/09/06 10:31:48;;;;;;;;;;;;;;;20.45;66.61;99973.64;105176;1268;109475;-89
2023/09/06 10:34:17;;;;;;;;;;;;;;;20.47;66.30;99975.08;105273;1265;96648;-89
2023/09/06 10:36:56;;;;;;;;;;;;;;;20.48;66.26;99976.61;105476;1262;107595;-89
2023/09/06 10:40:02;;;;;;;;;;;;;;;20.50;66.27;99977.31;105482;1265;96771;-90
2023/09/06 10:42:31;;;;;;;;;;;;;;;20.52;66.26;99975.48;105395;1276;96591;-89
2023/09/06 10:44:59;;;;;;;;;;;;;;;20.56;66.16;99980.34;105535;1263;108787;-90
2023/09/06 10:47:33;;;;;;;;;;;;;;;20.57;66.06;99979.81;105470;1265;95351;-91
2023/09/06 10:50:19;;;;;;;;;;;;;;;20.61;65.83;99979.83;105455;1268;108458;-89
2023/09/06 10:52:48;;;;;;;;;;;;;;;20.65;66.01;99978.73;105500;1262;96976;-89
2023/09/06 10:55:22;;;;;;;;;;;;;;;20.64;65.89;99973.89;105476;1265;96626;-89
2023/09/06 10:57:59;;;;;;;;;;;;;;;20.67;65.73;99975.78;105447;1267;110404;-89
2023/09/06 11:00:32;;;;;;;;;;;;;;;20.70;65.85;99975.67;105525;1260;96419;-90
2023/09/06 11:03:13;;;;;;;;;;;;;;;20.78;65.90;99977.75;105494;1265;105812;-90
2023/09/06 11:05:43;;;;;;;;;;;;;;;20.78;65.63;99979.02;105694;1265;96588;-89
2023/09/06 11:08:35;;;;;;;;;;;;;;;20.76;65.47;99975.61;105522;1265;96525;-91
2023/09/06 11:11:13;;;;;;;;;;;;;;;20.77;65.24;99974.20;105513;1260;110152;-90
2023/09/06 11:13:44;;;;;;;;;;;;;;;20.79;65.21;99975.10;105496;1260;96517;-90
2023/09/06 11:16:21;;;;;;;;;;;;;;;20.82;65.09;99971.23;105630;1263;107549;-89
2023/09/06 11:19:53;;;;;;;;;;;;;;;20.88;64.98;99967.54;105513;1268;96581;-90
2023/09/06 11:22:21;;;;;;;;;;;;;;;20.90;64.86;99966.41;105899;1262;96527;-90
2023/09/06 11:24:49;;;;;;;;;;;;;;;20.91;64.85;99962.80;105731;1265;110110;-89
2023/09/06 11:27:19;;;;;;;;;;;;;;;20.91;64.82;99956.41;105670;1261;96664;-89
2023/09/06 11:30:09;;;;;;;;;;;;;;;20.91;64.79;99955.35;105471;1262;107256;-89
2023/09/06 11:33:10;;;;;;;;;;;;;;;20.92;64.62;99954.16;105737;1275;96594;-90
2023/09/06 11:35:45;;;;;;;;;;;;;;;20.92;64.49;99953.82;106447;1265;96428;-90
2023/09/06 11:38:24;;;;;;;;;;;;;;;20.97;64.42;99951.70;106349;1262;109393;-90
2023/09/06 11:40:52;;;;;;;;;;;;;;;21.05;64.41;99949.30;105964;1268;97938;-90
2023/09/06 11:43:23;;;;;;;;;;;;;;;21.06;64.48;99949.21;106020;1267;107292;-89
2023/09/06 11:45:53;;;;;;;;;;;;;;;21.06;64.42;99952.90;105830;1265;96593;-90
2023/09/06 11:48:30;;;;;;;;;;;;;;;21.08;64.25;99952.95;105898;1265;96549;-90
2023/09/06 11:51:10;;;;;;;;;;;;;;;21.10;64.15;99948.34;105836;1265;109918;-90
2023/09/06 11:57:31;;;;;;;;;;;;;;;21.23;63.74;99949.05;105749;1267;107661;-92
2023/09/06 12:00:00;;;;;;;;;;;;;;;21.22;63.32;99949.08;105501;1267;96599;-90
2023/09/06 12:02:34;;;;;;;;;;;;;;;21.20;63.63;99946.33;105548;1268;96533;-89
2023/09/06 12:05:11;;;;;;;;;;;;;;;21.20;63.24;99945.22;105497;1263;109667;-89
2023/09/06 12:07:40;;;;;;;;;;;;;;;21.19;63.10;99943.92;105517;1267;96605;-90
2023/09/06 12:10:09;;;;;;;;;;;;;;;21.20;63.13;99939.84;105704;1265;107402;-90
2023/09/06 12:12:40;;;;;;;;;;;;;;;21.20;63.43;99941.25;105663;1266;97606;-90
2023/09/06 12:15:14;;;;;;;;;;;;;;;21.26;63.55;99944.44;105683;1261;96725;-89
2023/09/06 12:17:42;;;;;;;;;;;;;;;21.28;63.51;99945.43;105980;1263;109320;-90
2023/09/06 12:20:18;;;;;;;;;;;;;;;21.31;63.48;99940.63;106446;1268;96596;-90
2023/09/06 12:22:47;;;;;;;;;;;;;;;21.32;63.30;99940.35;106302;1274;107449;-90
2023/09/06 12:25:15;;;;;;;;;;;;;;;21.34;63.57;99937.31;105864;1265;96633;-90
2023/09/06 12:27:46;;;;;;;;;;;;;;;21.36;62.98;99938.00;105950;1265;96751;-90
2023/09/06 12:30:16;;;;;;;;;;;;;;;21.36;62.95;99928.79;105470;1268;109340;-90
2023/09/06 12:32:45;;;;;;;;;;;;;;;21.42;63.23;99930.80;105732;1266;96897;-89
2023/09/06 12:35:17;;;;;;;;;;;;;;;21.48;62.88;99926.39;105565;1260;301724;-90
2023/09/06 12:37:46;;;;;;;;;;;;;;;21.51;63.10;99922.83;105682;1267;97579;-91
2023/09/06 12:40:14;;;;;;;;;;;;;;;21.55;62.62;99922.13;105793;1260;96630;-90
2023/09/06 12:42:49;;;;;;;;;;;;;;;21.57;62.89;99919.22;105853;1265;110006;-90
2023/09/06 12:45:49;;;;;;;;;;;;;;;21.54;62.73;99915.84;105661;1262;96543;-91
2023/09/06 12:48:18;;;;;;;;;;;;;;;21.55;62.56;99917.73;105773;1265;107382;-91
2023/09/06 12:50:47;;;;;;;;;;;;;;;21.58;62.75;99914.38;105552;1266;96612;-89
2023/09/06 12:54:06;;;;;;;;;;;;;;;21.66;62.55;99912.09;105327;1271;97561;-88
2023/09/06 12:56:38;;;;;;;;;;;;;;;21.64;62.37;99909.07;105482;1265;110194;-90
2023/09/06 12:59:09;;;;;;;;;;;;;;;21.64;62.36;99909.59;105500;1268;96581;-91
2023/09/06 13:01:38;;;;;;;;;;;;;;;21.69;62.10;99907.33;105506;1271;107582;-90
2023/09/06 13:04:11;;;;;;;;;;;;;;;21.73;62.29;99905.45;105463;1269;96717;-89
2023/09/06 13:06:40;;;;;;;;;;;;;;;21.78;62.18;99909.29;105605;1267;96524;-90
2023/09/06 13:09:08;;;;;;;;;;;;;;;21.79;62.01;99908.45;105547;1270;110120;-89
2023/09/06 13:11:37;;;;;;;;;;;;;;;21.77;61.93;99905.57;105461;1266;96596;-90
2023/09/06 13:14:06;;;;;;;;;;;;;;;21.75;61.81;99896.79;105744;1264;107699;-89
2023/09/06 13:16:34;;;;;;;;;;;;;;;21.72;61.75;99898.68;105703;1260;96598;-90
2023/09/06 13:19:03;;;;;;;;;;;;;;;21.74;61.65;99901.02;105777;1268;97129;-90
2023/09/06 13:21:33;;;;;;;;;;;;;;;21.78;61.71;99895.34;105755;1266;109977;-91
2023/09/06 13:24:04;;;;;;;;;;;;;;;21.80;61.49;99890.48;105787;1261;96660;-90
2023/09/06 13:26:33;;;;;;;;;;;;;;;21.80;61.40;99886.52;105710;1266;107670;-89
2023/09/06 13:29:06;;;;;;;;;;;;;;;21.82;61.23;99883.73;105856;1260;96638;-90
2023/09/06 13:31:38;;;;;;;;;;;;;;;21.82;61.20;99879.75;105811;1263;96902;-89
2023/09/06 13:34:08;;;;;;;;;;;;;;;21.80;61.34;99876.95;105725;1265;109947;-91
2023/09/06 13:36:37;;;;;;;;;;;;;;;21.76;61.08;99872.80;105889;1267;96601;-89
2023/09/06 13:39:09;;;;;;;;;;;;;;;21.77;61.01;99871.04;105826;1267;107582;-91
2023/09/06 13:41:43;;;;;;;;;;;;;;;21.79;61.07;99873.80;105722;1266;98068;-89
2023/09/06 13:44:11;;;;;;;;;;;;;;;21.82;60.78;99864.04;105653;1266;96651;-90
2023/09/06 13:46:42;;;;;;;;;;;;;;;21.81;60.60;99859.13;105869;1264;110494;-90
2023/09/06 13:49:11;;;;;;;;;;;;;;;21.79;60.53;99860.97;106614;1264;96504;-90
2023/09/06 13:51:41;;;;;;;;;;;;;;;21.82;60.36;99859.20;106532;1261;106354;-90
2023/09/06 13:54:09;;;;;;;;;;;;;;;21.85;60.55;99855.76;105960;1265;96581;-90
2023/09/06 13:56:37;;;;;;;;;;;;;;;21.89;60.61;99854.35;106016;1266;96718;-90
2023/09/06 13:59:07;;;;;;;;;;;;;;;21.91;60.51;99852.80;105987;1265;108459;-89
2023/09/06 14:01:38;;;;;;;;;;;;;;;21.91;60.28;99850.77;105728;1263;96579;-90
2023/09/06 14:04:07;;;;;;;;;;;;;;;21.94;60.15;99852.10;106044;1266;107819;-90
2023/09/06 14:06:38;;;;;;;;;;;;;;;21.96;59.99;99851.92;105733;1268;96701;-90
2023/09/06 14:09:10;;;;;;;;;;;;;;;21.95;60.04;99850.98;105814;1270;96632;-91
2023/09/06 14:11:38;;;;;;;;;;;;;;;21.94;59.89;99847.59;105606;1269;110055;-90
2023/09/06 14:14:06;;;;;;;;;;;;;;;21.92;60.12;99848.16;105847;1265;96539;-90
2023/09/06 14:16:35;;;;;;;;;;;;;;;21.93;59.83;99849.18;105609;1266;107787;-89
2023/09/06 14:19:03;;;;;;;;;;;;;;;21.93;59.73;99851.89;105557;1266;96611;-89
2023/09/06 14:21:33;;;;;;;;;;;;;;;21.94;59.67;99852.85;105803;1266;96505;-89
2023/09/06 14:24:01;;;;;;;;;;;;;;;21.95;59.68;99850.07;105836;1266;110045;-89
2023/09/06 14:26:29;;;;;;;;;;;;;;;21.92;59.70;99848.94;105501;1267;97028;-90
2023/09/06 14:28:58;;;;;;;;;;;;;;;21.92;59.75;99848.52;106112;1259;108075;-92
2023/09/06 14:31:27;;;;;;;;;;;;;;;21.90;59.57;99846.56;105830;1265;96707;-90
2023/09/06 14:33:55;;;;;;;;;;;;;;;21.87;59.50;99846.89;106283;1267;96470;-90
2023/09/06 14:36:23;;;;;;;;;;;;;;;21.84;59.37;99849.35;106109;1259;108669;-91
2023/09/06 14:38:54;;;;;;;;;;;;;;;21.86;59.31;99847.91;105851;1265;96615;-91
2023/09/06 14:41:26;;;;;;;;;;;;;;;21.88;59.39;99842.80;105568;1267;106235;-90
2023/09/06 14:43:55;;;;;;;;;;;;;;;21.90;59.29;99843.38;105817;1264;96800;-92
2023/09/06 14:46:23;;;;;;;;;;;;;;;21.93;59.38;99841.63;105458;1268;97890;-90
2023/09/06 14:48:51;;;;;;;;;;;;;;;21.92;59.42;99841.33;105585;1264;109368;-90
2023/09/06 14:51:21;;;;;;;;;;;;;;;21.90;59.44;99840.88;105454;1259;96599;-88
2023/09/06 14:53:50;;;;;;;;;;;;;;;21.89;59.16;99844.43;105763;1260;108185;-89
2023/09/06 14:56:19;;;;;;;;;;;;;;;21.92;59.20;99842.10;105513;1260;97542;-89
2023/09/06 14:58:47;;;;;;;;;;;;;;;21.93;59.08;99839.18;105424;1265;97537;-88
2023/09/06 15:01:15;;;;;;;;;;;;;;;21.91;58.74;99839.59;105556;1259;109245;-89
2023/09/06 15:03:43;;;;;;;;;;;;;;;21.87;58.77;99836.73;105422;1264;96605;-89
2023/09/06 15:06:13;;;;;;;;;;;;;;;21.85;58.74;99837.69;105585;1260;107424;-89
